^^
Station Historical Data
Daily Summary for April 1, 2017 Units:  Metric    English   Both
« Previous Day
Next Day »
Daily Weekly Monthly Yearly Custom
  High: Low: Average:
Temperature: 35.1 °C 18.4 °C 26.2 °C
Dew Point: 7.7 °C -2.6 °C 1.5 °C
Humidity: 33% 14% 21%
Wind Speed: 17.7km/h 0km/h 3.1km/h
Wind Gust: 24.1km/h - -
Wind- - WSW
Pressure: 1014.8 hPa 1010 hPa -
Precipitation: 0 mm    
Historical Graphs
 
 
Tabular Data for April 1, 2017
Time Temperature Dew Point Pressure Wind Wind Speed Wind Gust Humidity Rainfall Rate (Hourly) solar Conditions
04:11 20.6 °C -1.3 °C 1013.4 hPa Calm     23% 0 mm 0.0 W/m2
04:16 20.5 °C -1.3 °C 1013.4 hPa Calm     23% 0 mm 0.0 W/m2
04:22 20.4 °C -2 °C 1013.4 hPa Calm     22% 0 mm 0.0 W/m2
04:27 20.3 °C -1.5 °C 1013.4 hPa Calm     23% 0 mm 0.0 W/m2
04:33 20.3 °C -1.5 °C 1013.4 hPa Calm     23% 0 mm 0.0 W/m2
04:43 20 °C -1.2 °C 1013.4 hPa Calm     24% 0 mm 0.0 W/m2
04:49 20 °C -1.2 °C 1013.4 hPa Calm     24% 0 mm 0.0 W/m2
04:55 20.1 °C -0.5 °C 1013.4 hPa Calm     25% 0 mm 0.0 W/m2
05:01 20.1 °C -0.5 °C 1013.4 hPa Calm     25% 0 mm 0.0 W/m2
05:07 20.2 °C -0.5 °C 1013.4 hPa Calm     25% 0 mm 0.0 W/m2
05:12 20.2 °C -0.5 °C 1013.4 hPa Calm     25% 0 mm 0.0 W/m2
05:35 19.9 °C -0.2 °C 1013.8 hPa Calm     26% 0 mm 0.0 W/m2
05:46 19.8 °C 0.3 °C 1014.1 hPa Calm     27% 0 mm 0.0 W/m2
05:51 19.7 °C 0.2 °C 1014.1 hPa Calm     27% 0 mm 0.0 W/m2
06:00 19.6 °C 0.1 °C 1014.1 hPa Calm     27% 0 mm 0.0 W/m2
06:05 19.4 °C -0.1 °C 1014.1 hPa Calm     27% 0 mm 0.0 W/m2
06:10 19.2 °C 0.2 °C 1014.1 hPa Calm     28% 0 mm 0.0 W/m2
06:18 19 °C 0.1 °C 1014.1 hPa Calm     28% 0 mm 0.0 W/m2
06:22 19 °C 0.1 °C 1014.1 hPa Calm     28% 0 mm 0.0 W/m2
06:29 19.1 °C 0.2 °C 1014.1 hPa Calm     28% 0 mm 0.0 W/m2
06:33 19.1 °C 0.2 °C 1014.1 hPa Calm     28% 0 mm 0.0 W/m2
06:40 19.1 °C 0.2 °C 1014.1 hPa Calm     28% 0 mm 0.0 W/m2
06:48 18.6 °C 0.2 °C 1014.1 hPa Calm     29% 0 mm 0.0 W/m2
06:54 18.6 °C 0.2 °C 1014.1 hPa Calm     29% 0 mm 0.0 W/m2
06:59 18.4 °C 0 °C 1014.1 hPa Calm     29% 0 mm 5.0 W/m2
07:06 18.4 °C 0 °C 1014.1 hPa Calm     29% 0 mm 5.0 W/m2
07:14 18.4 °C 0 °C 1014.4 hPa Calm     29% 0 mm 14.0 W/m2
07:30 18.4 °C 0.5 °C 1014.4 hPa Calm     30% 0 mm 49.0 W/m2
07:52 19.3 °C 0.3 °C 1014.4 hPa Calm     28% 0 mm 95.0 W/m2
08:08 20.2 °C 0.6 °C 1014.4 hPa Calm     27% 0 mm 158.0 W/m2
08:16 21.1 °C -0.3 °C 1014.4 hPa Calm     24% 0 mm 223.0 W/m2
08:30 21.6 °C -0.4 °C 1014.4 hPa Calm     23% 0 mm 260.0 W/m2
08:40 22 °C -0.7 °C 1014.4 hPa Calm     22% 0 mm 295.0 W/m2
08:42 22.2 °C -0.5 °C 1014.8 hPa Calm     22% 0 mm 316.0 W/m2
08:47 22.4 °C -0.4 °C 1014.4 hPa Calm     22% 0 mm 334.0 W/m2
08:57 23 °C -1.2 °C 1014.4 hPa Calm     20% 0 mm 367.0 W/m2
09:07 23.6 °C -2.1 °C 1014.8 hPa Calm     18% 0 mm 401.0 W/m2
09:21 23.9 °C -2.6 °C 1014.8 hPa Calm     17% 0 mm 434.0 W/m2
09:30 24.6 °C -2.1 °C 1014.4 hPa Calm     17% 0 mm 466.0 W/m2
09:35 24.8 °C -1.9 °C 1014.4 hPa Calm     17% 0 mm 483.0 W/m2
09:48 25.4 °C -2.3 °C 1014.4 hPa Calm     16% 0 mm 527.0 W/m2
10:09 26.1 °C -1.7 °C 1014.4 hPa Calm     16% 0 mm 575.0 W/m2
10:14 26.6 °C -1.3 °C 1014.4 hPa Calm     16% 0 mm 603.0 W/m2
10:30 27 °C -1 °C 1014.1 hPa Calm     16% 0 mm 629.0 W/m2
10:52 27.8 °C -1.2 °C 1014.1 hPa Calm     15% 0 mm 680.0 W/m2
11:16 29.4 °C 0.1 °C 1013.8 hPa Calm     15% 0 mm 737.0 W/m2
11:22 29.4 °C 0.1 °C 1013.8 hPa Calm     15% 0 mm 737.0 W/m2
11:34 30 °C 0.5 °C 1013.8 hPa Calm     15% 0 mm 752.0 W/m2
12:19 31.8 °C 2 °C 1013.4 hPa NNW 9.7 km/h 12.9 km/h 15% 0 mm 800.0 W/m2
12:31 31.8 °C 1 °C 1013.1 hPa Calm   9.7 km/h 14% 0 mm 805.0 W/m2
12:44 32.1 °C 4 °C 1013.1 hPa Calm   9.7 km/h 17% 0 mm 814.0 W/m2
12:55 32.2 °C 4.1 °C 1012.8 hPa Calm   12.9 km/h 17% 0 mm 810.0 W/m2
13:18 32.8 °C 3.7 °C 1012.4 hPa Calm     16% 0 mm 807.0 W/m2
13:28 32.9 °C 4.6 °C 1012.1 hPa NNW 6.4 km/h 12.9 km/h 17% 0 mm 805.0 W/m2
14:30 34.1 °C 4.7 °C 1011.1 hPa NNW 6.4 km/h 12.9 km/h 16% 0 mm 740.0 W/m2
14:42 34.1 °C 4.7 °C 1011.1 hPa Calm     16% 0 mm 698.0 W/m2
14:58 34.9 °C 4.4 °C 1010.7 hPa NNW 9.7 km/h 9.7 km/h 15% 0 mm 698.0 W/m2
15:13 34.6 °C 4.2 °C 1010.7 hPa Calm     15% 0 mm 647.0 W/m2
15:28 34.8 °C 3.4 °C 1010.7 hPa NNW 7.9 km/h 17.7 km/h 14% 0 mm 626.0 W/m2
16:24 35 °C 3.5 °C 1010 hPa Calm     14% 0 mm 489.0 W/m2
16:39 34.5 °C 3.1 °C 1010 hPa Calm   12.9 km/h 14% 0 mm 123.0 W/m2
16:54 35 °C 3.5 °C 1010.4 hPa Calm     14% 0 mm 410.0 W/m2
17:09 35.1 °C 3.6 °C 1010 hPa Calm     14% 0 mm 320.0 W/m2
17:25 34.8 °C 3.4 °C 1010 hPa NW 1.4 km/h 3.2 km/h 14% 0 mm 299.0 W/m2
17:41 34.4 °C 4 °C 1010 hPa NW 7.9 km/h 19.3 km/h 15% 0 mm 239.0 W/m2
17:54 34.6 °C 3.2 °C 1010 hPa NW 11.1 km/h 17.7 km/h 14% 0 mm 144.0 W/m2
18:06 34.5 °C 3.1 °C 1010 hPa Calm     14% 0 mm 93.0 W/m2
18:36 33.7 °C 3.5 °C 1010 hPa NW 6.4 km/h 14.5 km/h 15% 0 mm 14.0 W/m2
18:45 33.2 °C 3.1 °C 1010 hPa Calm     15% 0 mm 0.0 W/m2
19:00 32.4 °C 2.4 °C 1010 hPa Calm     15% 0 mm 0.0 W/m2
19:11 31.9 °C 3 °C 1010 hPa Calm     16% 0 mm 0.0 W/m2
19:21 31.4 °C 2.6 °C 1010 hPa Calm     16% 0 mm 0.0 W/m2
19:35 30.8 °C 4.5 °C 1010 hPa Calm     19% 0 mm 0.0 W/m2
19:36 30.2 °C 3.3 °C 1010.4 hPa NW 9.7 km/h 12.9 km/h 18% 0 mm 0.0 W/m2
19:41 30.2 °C 3.3 °C 1010.4 hPa NW 9.7 km/h 12.9 km/h 18% 0 mm 0.0 W/m2
19:46 30.4 °C 2.6 °C 1010.7 hPa WSW 16.3 km/h 19.3 km/h 17% 0 mm 0.0 W/m2
20:08 30.5 °C 1.8 °C 1010.7 hPa South 16.3 km/h 24.1 km/h 16% 0 mm 0.0 W/m2
20:18 30.3 °C 2.5 °C 1010.7 hPa South 16.3 km/h 22.5 km/h 17% 0 mm 0.0 W/m2
20:34 29.9 °C 2.2 °C 1011.1 hPa South 13 km/h 19.3 km/h 17% 0 mm 0.0 W/m2
20:48 29.3 °C 1.7 °C 1011.4 hPa South 9.7 km/h 14.5 km/h 17% 0 mm 0.0 W/m2
21:04 28.9 °C 2.2 °C 1011.7 hPa South 9.7 km/h 12.9 km/h 18% 0 mm 0.0 W/m2
21:12 28.7 °C 2.8 °C 1012.1 hPa South 9.7 km/h 12.9 km/h 19% 0 mm 0.0 W/m2
21:34 28.3 °C 2.5 °C 1012.1 hPa South 13 km/h 13 km/h 19% 0 mm 0.0 W/m2
21:42 27.8 °C 2.8 °C 1012.1 hPa South 14.3 km/h 14.5 km/h 20% 0 mm 0.0 W/m2
21:57 27.7 °C 4 °C 1012.4 hPa South 17.7 km/h 22.5 km/h 22% 0 mm 0.0 W/m2
22:04 27.7 °C 4 °C 1012.4 hPa South 17.7 km/h 22.5 km/h 22% 0 mm 0.0 W/m2
22:12 27.3 °C 3.7 °C 1012.4 hPa South 7.9 km/h 11.3 km/h 22% 0 mm 0.0 W/m2
22:34 26.9 °C 5.8 °C 1012.4 hPa South 9.7 km/h 14.5 km/h 26% 0 mm 0.0 W/m2
22:50 26.2 °C 6.8 °C 1012.4 hPa South 7.9 km/h 11.3 km/h 29% 0 mm 0.0 W/m2
22:57 25.7 °C 6.8 °C 1012.4 hPa South 4.7 km/h 6.4 km/h 30% 0 mm 0.0 W/m2
23:19 25.5 °C 7.1 °C 1012.4 hPa South 6.4 km/h 6.4 km/h 31% 0 mm 0.0 W/m2
23:31 25.1 °C 7.7 °C 1012.4 hPa South 6.4 km/h 9.7 km/h 33% 0 mm 0.0 W/m2
23:40 25 °C 7.6 °C 1012.4 hPa Calm     33% 0 mm 0.0 W/m2
Canyon Roadhouse, Fishriver Canyon, Namibia
Compliments of Weather Underground - 2 mb